Time;durP1;ratioP1;P1;durP2;ratioP2;P2;SDS_P1;SDS_P2;PMS_P1;PMS_P2;Temp;Humidity;BMP_temperature;BMP_pressure;BME280_temperature;BME280_humidity;BME280_pressure;Samples;Min_cycle;Max_cycle;Signal;HPM_P1;HPM_P2
2023/05/14 00:02:05;;;;;;;7.57;5.40;;;;;;;14.86;68.61;101818.69;5032863;28;20022;-78
2023/05/14 00:04:30;;;;;;;6.93;5.72;;;;;;;14.80;68.40;101825.88;5032063;28;20107;-78
2023/05/14 00:06:55;;;;;;;7.57;5.50;;;;;;;14.74;68.17;101826.03;5032710;28;20093;-78
2023/05/14 00:09:20;;;;;;;7.75;6.13;;;;;;;14.70;68.18;101820.88;5032829;28;20041;-78
2023/05/14 00:11:46;;;;;;;7.18;5.60;;;;;;;14.70;69.48;101817.41;5032953;28;20397;-78
2023/05/14 00:14:11;;;;;;;11.65;7.00;;;;;;;14.68;69.49;101817.47;5031972;28;20033;-78
2023/05/14 00:16:36;;;;;;;8.15;5.93;;;;;;;14.64;68.50;101813.16;5032791;28;20034;-78
2023/05/14 00:19:01;;;;;;;6.82;5.57;;;;;;;14.59;68.75;101809.81;5032608;28;20021;-78
2023/05/14 00:21:27;;;;;;;7.95;6.13;;;;;;;14.49;68.94;101801.34;5032686;28;20033;-78
2023/05/14 00:23:52;;;;;;;10.93;6.00;;;;;;;14.45;69.33;101804.09;5031770;28;20076;-78
2023/05/14 00:26:19;;;;;;;8.00;5.30;;;;;;;14.38;69.69;101804.22;5031822;28;20477;-78
2023/05/14 00:28:44;;;;;;;7.95;6.15;;;;;;;14.32;69.75;101812.25;5032671;28;20313;-78
2023/05/14 00:31:10;;;;;;;8.48;6.15;;;;;;;14.24;70.60;101806.34;5032000;28;20658;-78
2023/05/14 00:33:35;;;;;;;7.05;6.07;;;;;;;14.19;70.56;101810.84;5031716;28;20029;-78
2023/05/14 00:36:00;;;;;;;7.95;6.00;;;;;;;14.13;70.71;101809.25;5032039;28;20048;-78
2023/05/14 00:38:27;;;;;;;8.52;5.72;;;;;;;14.06;70.90;101802.47;5032721;28;20021;-78
2023/05/14 00:40:52;;;;;;;8.27;5.43;;;;;;;14.00;71.04;101799.97;5032524;28;20030;-78
2023/05/14 00:43:21;;;;;;;10.13;5.80;;;;;;;13.92;71.08;101800.19;5031268;28;20407;-78
2023/05/14 00:45:49;;;;;;;7.75;5.78;;;;;;;13.82;71.40;101796.91;5032537;28;20040;-78
2023/05/14 00:48:15;;;;;;;8.73;6.18;;;;;;;13.76;71.67;101799.66;5031284;28;20114;-78
2023/05/14 00:50:41;;;;;;;9.70;6.32;;;;;;;13.72;71.69;101795.44;5038213;28;20120;-78
2023/05/14 00:53:09;;;;;;;9.38;6.55;;;;;;;13.66;71.62;101799.06;5032081;28;20087;-78
2023/05/14 00:55:36;;;;;;;8.85;6.72;;;;;;;13.63;71.91;101794.75;5031139;28;20095;-78
2023/05/14 00:58:06;;;;;;;9.55;6.72;;;;;;;13.60;72.15;101788.72;5032278;28;20380;-78
2023/05/14 01:00:31;;;;;;;9.70;6.57;;;;;;;13.54;72.06;101783.63;5032333;28;20052;-78
2023/05/14 01:03:00;;;;;;;10.82;6.45;;;;;;;13.53;72.64;101785.41;5031528;28;20021;-78
2023/05/14 01:05:32;;;;;;;9.52;6.70;;;;;;;13.48;72.21;101788.13;5032252;28;20039;-78
2023/05/14 01:08:06;;;;;;;9.13;6.10;;;;;;;13.46;72.15;101789.91;5032031;28;20061;-78
2023/05/14 01:10:41;;;;;;;8.07;6.25;;;;;;;13.42;72.35;101790.88;5031966;28;20021;-78
2023/05/14 01:13:23;;;;;;;10.02;6.70;;;;;;;13.40;71.82;101789.16;5031016;28;20018;-78
2023/05/14 01:15:48;;;;;;;10.02;6.63;;;;;;;13.37;72.66;101787.44;5030587;28;20480;-78
2023/05/14 01:18:17;;;;;;;8.93;6.78;;;;;;;13.36;73.56;101784.00;5031751;28;20022;-78
2023/05/14 01:20:43;;;;;;;8.65;7.03;;;;;;;13.34;73.38;101787.50;5031227;28;20026;-78
2023/05/14 01:23:09;;;;;;;8.35;6.90;;;;;;;13.33;72.69;101789.28;5030374;28;20040;-78
2023/05/14 01:25:34;;;;;;;10.43;7.35;;;;;;;13.31;72.99;101788.44;5031616;28;20468;-78
2023/05/14 01:28:16;;;;;;;10.90;6.88;;;;;;;13.31;73.90;101785.00;5030706;28;20576;-78
2023/05/14 01:30:54;;;;;;;8.80;6.55;;;;;;;13.31;73.74;101778.00;5029905;28;20056;-78
2023/05/14 01:33:21;;;;;;;8.70;6.85;;;;;;;13.27;74.07;101775.50;5029898;28;20488;-78
2023/05/14 01:35:47;;;;;;;8.30;7.10;;;;;;;13.26;73.50;101784.22;5031621;28;20025;-78
2023/05/14 01:38:15;;;;;;;9.35;7.32;;;;;;;13.23;73.48;101781.69;5031234;28;20045;-78
2023/05/14 01:40:42;;;;;;;10.55;7.45;;;;;;;13.20;73.52;101777.38;5030690;28;20532;-78
2023/05/14 01:43:08;;;;;;;10.43;7.25;;;;;;;13.18;74.41;101766.94;5031131;28;20057;-78
2023/05/14 01:45:36;;;;;;;8.38;7.45;;;;;;;13.17;73.59;101775.69;5031339;28;20045;-78
2023/05/14 01:48:03;;;;;;;10.73;7.18;;;;;;;13.14;73.15;101774.91;5030963;28;20114;-78
2023/05/14 01:50:28;;;;;;;9.20;6.90;;;;;;;13.10;73.58;101771.50;5030310;28;20124;-78
2023/05/14 01:52:55;;;;;;;11.52;7.50;;;;;;;13.06;73.90;101769.84;5031269;28;20105;-78
2023/05/14 01:55:23;;;;;;;8.23;7.25;;;;;;;13.02;74.79;101771.66;5030942;28;20185;-78
2023/05/14 01:57:50;;;;;;;10.88;7.75;;;;;;;12.99;74.00;101773.47;5031186;28;20064;-78
2023/05/14 02:00:15;;;;;;;10.80;7.57;;;;;;;12.96;74.20;101781.38;5031496;28;20021;-78
2023/05/14 02:02:41;;;;;;;11.65;8.32;;;;;;;12.95;74.86;101769.22;5030611;28;20018;-78
2023/05/14 02:05:07;;;;;;;10.88;7.60;;;;;;;12.91;74.28;101768.38;5034017;28;20469;-78
2023/05/14 02:07:32;;;;;;;8.80;7.72;;;;;;;12.90;74.13;101770.16;5035304;28;20021;-78
2023/05/14 02:09:57;;;;;;;10.10;7.82;;;;;;;12.88;74.19;101769.31;5035058;28;20037;-78
2023/05/14 02:12:22;;;;;;;9.90;7.80;;;;;;;12.86;74.57;101768.50;5034545;28;20119;-78
2023/05/14 02:14:48;;;;;;;9.60;8.15;;;;;;;12.87;75.73;101766.75;5035210;28;20377;-78
2023/05/14 02:17:16;;;;;;;9.70;8.10;;;;;;;12.87;74.83;101762.38;5035169;28;20053;-78
2023/05/14 02:19:42;;;;;;;10.23;7.72;;;;;;;12.83;74.77;101755.50;5034944;28;20552;-78
2023/05/14 02:22:07;;;;;;;9.48;7.57;;;;;;;12.82;75.53;101756.38;5034409;28;20027;-78
2023/05/14 02:24:32;;;;;;;10.57;8.07;;;;;;;12.83;75.72;101746.81;5033892;28;20029;-78
2023/05/14 02:26:59;;;;;;;8.48;7.53;;;;;;;12.83;75.42;101750.28;5035145;28;20477;-78
2023/05/14 02:29:25;;;;;;;10.70;7.78;;;;;;;12.79;75.13;101756.47;5034796;28;20029;-78
2023/05/14 02:31:50;;;;;;;11.20;8.07;;;;;;;12.75;75.32;101762.63;5034096;28;20045;-78
2023/05/14 02:34:16;;;;;;;11.75;7.95;;;;;;;12.72;74.78;101758.31;5034382;28;20029;-78
2023/05/14 02:36:41;;;;;;;9.90;7.90;;;;;;;12.68;75.72;101759.28;5033657;28;20388;-78
2023/05/14 02:39:06;;;;;;;9.50;7.25;;;;;;;12.63;75.64;101760.28;5034853;28;20075;-78
2023/05/14 02:41:31;;;;;;;12.27;7.85;;;;;;;12.54;75.97;101759.56;5034082;28;20488;-78
2023/05/14 02:43:57;;;;;;;11.77;8.00;;;;;;;12.51;76.51;101757.00;5034807;28;20455;-78
2023/05/14 02:46:22;;;;;;;9.27;7.88;;;;;;;12.50;76.60;101752.66;5034849;28;20032;-78
2023/05/14 02:48:47;;;;;;;10.13;8.40;;;;;;;12.48;76.37;101753.59;5034343;28;20480;-78
2023/05/14 02:51:13;;;;;;;11.07;8.88;;;;;;;12.44;76.80;101758.88;5033689;28;20041;-78
2023/05/14 02:53:38;;;;;;;8.80;7.80;;;;;;;12.45;76.72;101759.75;5034775;28;20022;-78
2023/05/14 02:56:03;;;;;;;10.73;8.50;;;;;;;12.41;77.15;101758.91;5034260;28;20419;-78
2023/05/14 02:58:29;;;;;;;11.10;8.68;;;;;;;12.39;76.83;101760.69;5034268;28;20032;-78
2023/05/14 03:00:55;;;;;;;12.77;8.55;;;;;;;12.36;77.14;101759.91;5033175;28;20036;-78
2023/05/14 03:03:20;;;;;;;10.13;8.07;;;;;;;12.29;77.58;101754.81;5033958;28;20033;-78
2023/05/14 03:05:45;;;;;;;9.90;7.95;;;;;;;12.21;77.27;101751.47;5033734;28;20387;-78
2023/05/14 03:08:11;;;;;;;10.80;8.63;;;;;;;12.12;77.41;101751.66;5034444;28;20029;-78
2023/05/14 03:10:36;;;;;;;11.50;8.13;;;;;;;12.09;77.98;101749.94;5033862;28;20511;-78
2023/05/14 03:13:01;;;;;;;11.30;8.77;;;;;;;12.08;77.47;101747.34;5032713;28;20025;-78
2023/05/14 03:15:27;;;;;;;11.02;8.50;;;;;;;12.02;77.48;101752.66;5033106;28;20479;-78
2023/05/14 03:17:52;;;;;;;10.85;9.10;;;;;;;11.93;78.11;101744.09;5034181;28;20021;-78
2023/05/14 03:20:17;;;;;;;11.02;7.90;;;;;;;11.88;77.97;101740.69;5032660;28;20116;-78
2023/05/14 03:22:43;;;;;;;11.40;8.52;;;;;;;11.81;77.86;101739.06;5032726;28;20107;-78
2023/05/14 03:25:08;;;;;;;12.40;8.65;;;;;;;11.74;78.33;101735.69;5032508;28;20028;-78
2023/05/14 03:27:34;;;;;;;13.13;9.38;;;;;;;11.71;78.10;101740.13;5033652;28;20022;-78
2023/05/14 03:29:59;;;;;;;10.27;8.85;;;;;;;11.66;78.15;101738.44;5033710;28;20087;-78
2023/05/14 03:32:25;;;;;;;10.30;8.90;;;;;;;11.62;78.51;101730.69;5032159;28;20037;-78
2023/05/14 03:34:50;;;;;;;13.70;9.38;;;;;;;11.58;78.52;101734.22;5031999;28;20021;-78
2023/05/14 03:37:15;;;;;;;13.05;9.32;;;;;;;11.54;78.74;101731.66;5033689;28;20381;-78
2023/05/14 03:39:40;;;;;;;11.77;9.40;;;;;;;11.51;79.49;101728.25;5034004;28;20057;-78
2023/05/14 03:42:06;;;;;;;11.88;9.55;;;;;;;11.53;79.18;101736.91;5031530;28;20457;-78
2023/05/14 03:44:31;;;;;;;11.68;9.82;;;;;;;11.50;79.26;101731.75;5033006;28;20025;-78
2023/05/14 03:46:56;;;;;;;10.90;9.25;;;;;;;11.47;79.27;101731.78;5033379;28;20041;-78
2023/05/14 03:49:22;;;;;;;12.25;9.35;;;;;;;11.44;79.90;101732.69;5032706;28;20030;-78
2023/05/14 03:51:47;;;;;;;13.60;9.30;;;;;;;11.45;80.03;101738.75;5033308;28;20041;-78
2023/05/14 03:54:12;;;;;;;11.32;9.57;;;;;;;11.46;79.69;101730.06;5038172;28;20033;-82
2023/05/14 03:56:37;;;;;;;22.35;11.60;;;;;;;11.44;79.65;101732.69;5032963;28;20033;-78
2023/05/14 03:59:03;;;;;;;16.35;10.38;;;;;;;11.42;79.97;101734.47;5033474;28;20498;-78
2023/05/14 04:01:28;;;;;;;13.85;9.88;;;;;;;11.42;80.19;101728.41;5033215;28;20026;-78
2023/05/14 04:03:53;;;;;;;12.68;9.65;;;;;;;11.39;80.20;101730.16;5033394;28;20032;-78
2023/05/14 04:06:19;;;;;;;14.77;9.80;;;;;;;11.39;80.08;101730.16;5032307;28;20020;-78
2023/05/14 04:08:44;;;;;;;14.52;9.98;;;;;;;11.36;80.07;101730.22;5033288;28;20488;-78
2023/05/14 04:11:09;;;;;;;14.68;9.95;;;;;;;11.35;80.21;101723.28;5032924;28;20032;-78
2023/05/14 04:13:35;;;;;;;15.60;10.13;;;;;;;11.34;80.65;101725.91;5033120;28;20102;-78
2023/05/14 04:16:00;;;;;;;13.25;10.07;;;;;;;11.34;80.75;101724.16;5032209;28;20025;-78
2023/05/14 04:18:25;;;;;;;14.15;10.10;;;;;;;11.36;80.74;101727.59;5032899;28;20400;-78
2023/05/14 04:20:50;;;;;;;13.63;10.13;;;;;;;11.36;80.86;101727.59;5032752;28;20029;-78
2023/05/14 04:23:16;;;;;;;13.15;10.30;;;;;;;11.34;81.14;101721.56;5032977;28;20384;-78
2023/05/14 04:25:41;;;;;;;13.70;10.70;;;;;;;11.37;81.07;101731.94;5031775;28;20053;-78
2023/05/14 04:28:06;;;;;;;14.85;10.35;;;;;;;11.38;80.85;101728.44;5031998;28;20087;-78
2023/05/14 04:30:31;;;;;;;15.93;10.63;;;;;;;11.37;81.04;101729.31;5032689;28;20040;-78
2023/05/14 04:32:57;;;;;;;15.77;10.75;;;;;;;11.39;80.91;101734.50;5032339;28;20048;-78
2023/05/14 04:35:22;;;;;;;12.90;10.48;;;;;;;11.36;81.26;101730.22;5032357;28;20107;-78
2023/05/14 04:37:48;;;;;;;15.38;10.10;;;;;;;11.34;81.62;101724.16;5031840;28;20472;-78
2023/05/14 04:40:14;;;;;;;16.00;10.65;;;;;;;11.36;82.22;101725.00;5031958;28;20029;-78
2023/05/14 04:42:40;;;;;;;15.18;10.90;;;;;;;11.41;82.16;101729.28;5032377;28;20025;-78
2023/05/14 04:45:07;;;;;;;16.08;11.25;;;;;;;11.39;81.96;101722.34;5031381;28;20037;-78
2023/05/14 04:47:33;;;;;;;17.38;10.70;;;;;;;11.43;81.88;101720.56;5032304;28;20028;-78
2023/05/14 04:49:58;;;;;;;14.75;10.95;;;;;;;11.44;81.99;101718.81;5032157;28;20137;-78
2023/05/14 04:52:23;;;;;;;16.95;11.45;;;;;;;11.48;81.99;101723.97;5031420;28;20048;-78
2023/05/14 04:54:49;;;;;;;18.83;11.10;;;;;;;11.48;82.03;101725.69;5032471;28;20086;-78
2023/05/14 04:57:14;;;;;;;17.83;11.45;;;;;;;11.47;82.24;101735.25;5031271;28;20499;-78
2023/05/14 04:59:39;;;;;;;16.02;11.02;;;;;;;11.49;82.35;101730.91;5031852;28;20057;-78
2023/05/14 05:02:04;;;;;;;18.55;10.80;;;;;;;11.53;82.46;101742.13;5031321;28;20029;-78
2023/05/14 05:04:30;;;;;;;15.48;11.40;;;;;;;11.57;82.88;101743.81;5030198;28;20025;-78
2023/05/14 05:06:55;;;;;;;13.93;11.38;;;;;;;11.63;83.47;101742.84;5031448;28;21625;-78
2023/05/14 05:09:20;;;;;;;14.00;11.15;;;;;;;11.68;82.89;101741.88;5031940;28;20490;-78
2023/05/14 05:11:46;;;;;;;16.75;11.40;;;;;;;11.69;81.72;101743.59;5030585;28;20033;-78
2023/05/14 05:14:11;;;;;;;16.92;11.20;;;;;;;11.68;81.94;101741.03;5031752;28;20037;-78
2023/05/14 05:16:36;;;;;;;13.30;10.80;;;;;;;11.70;82.18;101744.44;5031974;28;20385;-77
2023/05/14 05:19:01;;;;;;;14.05;10.25;;;;;;;11.75;82.85;101749.63;5030987;28;20033;-78
2023/05/14 05:21:27;;;;;;;15.05;10.43;;;;;;;11.82;82.86;101749.50;5031849;28;20431;-78
2023/05/14 05:23:52;;;;;;;14.25;11.10;;;;;;;11.89;82.60;101746.75;5032054;28;20037;-78
2023/05/14 05:26:17;;;;;;;14.20;10.50;;;;;;;11.93;83.32;101749.31;5030852;28;20039;-78
2023/05/14 05:28:43;;;;;;;15.98;10.93;;;;;;;11.98;82.54;101750.09;5031188;28;20042;-78
2023/05/14 05:31:08;;;;;;;12.70;10.32;;;;;;;12.04;82.18;101743.06;5030763;28;20029;-78
2023/05/14 05:33:34;;;;;;;15.20;11.18;;;;;;;12.12;83.12;101749.03;5031831;28;20055;-78
2023/05/14 05:35:59;;;;;;;15.05;10.90;;;;;;;12.18;82.70;101737.63;5035118;28;20073;-78
2023/05/14 05:38:25;;;;;;;11.70;9.88;;;;;;;12.21;82.39;101745.41;5030840;28;20091;-78
2023/05/14 05:40:50;;;;;;;16.38;10.95;;;;;;;12.24;82.72;101748.81;5031001;28;20108;-78
2023/05/14 05:43:15;;;;;;;13.77;11.00;;;;;;;12.29;83.14;101744.38;5031185;28;20056;-78
2023/05/14 05:45:41;;;;;;;15.00;10.38;;;;;;;12.35;82.38;101740.78;5031575;28;20061;-78
2023/05/14 05:48:06;;;;;;;13.77;10.35;;;;;;;12.40;83.00;101740.69;5031489;28;20451;-77
2023/05/14 05:50:31;;;;;;;13.68;9.68;;;;;;;12.47;82.35;101737.06;5031383;28;20103;-78
2023/05/14 05:53:00;;;;;;;15.55;10.55;;;;;;;12.48;82.08;101744.00;5030809;28;20032;-78
2023/05/14 05:55:25;;;;;;;13.48;10.70;;;;;;;12.51;82.10;101733.50;5031353;28;20032;-78
2023/05/14 05:57:51;;;;;;;15.13;10.68;;;;;;;12.54;80.48;101743.88;5031636;28;20455;-78
2023/05/14 06:00:16;;;;;;;13.35;10.20;;;;;;;12.51;80.44;101743.94;5031498;28;20040;-78
2023/05/14 06:02:42;;;;;;;15.52;11.38;;;;;;;12.50;81.48;101747.44;5029347;28;20032;-78
2023/05/14 06:05:09;;;;;;;13.85;10.43;;;;;;;12.51;80.83;101758.75;5031076;28;21659;-78
2023/05/14 06:07:34;;;;;;;14.77;10.63;;;;;;;12.49;80.31;101752.69;5031292;28;20462;-78
2023/05/14 06:10:00;;;;;;;13.27;10.90;;;;;;;12.50;81.81;101752.66;5031307;28;20037;-78
2023/05/14 06:12:25;;;;;;;15.30;11.07;;;;;;;12.54;81.47;101756.94;5029465;28;20057;-78
2023/05/14 06:14:50;;;;;;;13.82;10.82;;;;;;;12.60;81.90;101759.44;5030534;28;20112;-78
2023/05/14 06:17:16;;;;;;;15.68;10.88;;;;;;;12.66;81.32;101762.81;5030616;28;20033;-78
2023/05/14 06:19:41;;;;;;;12.85;10.15;;;;;;;12.70;81.38;101764.47;5030090;28;20072;-78
2023/05/14 06:22:06;;;;;;;17.10;11.02;;;;;;;12.73;81.12;101764.41;5029885;28;20087;-78
2023/05/14 06:24:32;;;;;;;14.57;11.13;;;;;;;12.78;80.09;101756.47;5031177;28;20370;-78
2023/05/14 06:26:57;;;;;;;17.30;11.20;;;;;;;12.82;79.81;101759.00;5031069;28;20020;-78
2023/05/14 06:29:23;;;;;;;14.50;11.07;;;;;;;12.88;80.81;101763.25;5029415;28;20064;-78
2023/05/14 06:31:48;;;;;;;15.80;11.40;;;;;;;12.97;82.05;101764.81;5027868;28;20029;-78
2023/05/14 06:34:13;;;;;;;15.65;11.05;;;;;;;12.98;80.33;101759.56;5031159;28;20029;-78
2023/05/14 06:36:39;;;;;;;14.98;10.88;;;;;;;13.00;80.10;101764.72;5030820;28;20413;-78
2023/05/14 06:39:04;;;;;;;15.00;11.00;;;;;;;13.05;80.97;101765.50;5029556;28;20074;-78
2023/05/14 06:41:29;;;;;;;18.88;10.82;;;;;;;13.08;80.02;101768.06;5030825;28;20021;-78
2023/05/14 06:43:55;;;;;;;16.63;11.45;;;;;;;13.09;79.68;101767.16;5030694;28;20044;-78
2023/05/14 06:46:20;;;;;;;15.63;11.07;;;;;;;13.11;78.77;101764.50;5030282;28;20075;-78
2023/05/14 06:48:45;;;;;;;15.57;11.27;;;;;;;13.13;78.96;101762.72;5030615;28;20037;-78
2023/05/14 06:51:12;;;;;;;16.88;11.13;;;;;;;13.15;79.04;101767.00;5033591;28;20041;-78
2023/05/14 06:53:37;;;;;;;15.48;10.40;;;;;;;13.20;80.41;101765.16;5033449;28;20109;-78
2023/05/14 06:56:03;;;;;;;15.25;11.07;;;;;;;13.21;79.87;101761.66;5033467;28;20101;-78
2023/05/14 06:58:29;;;;;;;14.80;11.07;;;;;;;13.25;78.73;101767.66;5035688;28;20036;-82
2023/05/14 07:00:54;;;;;;;16.63;11.18;;;;;;;13.28;79.30;101759.78;5034490;28;20032;-78
2023/05/14 07:03:21;;;;;;;15.73;11.50;;;;;;;13.34;80.46;101764.00;5032878;28;20033;-78
2023/05/14 07:05:46;;;;;;;13.68;10.88;;;;;;;13.37;80.05;101766.53;5033630;28;20044;-78
2023/05/14 07:08:11;;;;;;;15.63;11.40;;;;;;;13.42;79.54;101763.84;5033523;28;20033;-78
2023/05/14 07:10:37;;;;;;;15.77;11.27;;;;;;;13.44;79.41;101762.94;5034425;28;20031;-78
2023/05/14 07:13:03;;;;;;;16.13;11.05;;;;;;;13.44;78.56;101756.84;5033537;28;20025;-78
2023/05/14 07:15:28;;;;;;;16.05;11.55;;;;;;;13.46;79.33;101755.94;5033229;28;20558;-78
2023/05/14 07:17:54;;;;;;;14.90;11.55;;;;;;;13.50;80.00;101752.31;5034265;28;20029;-78
2023/05/14 07:20:19;;;;;;;15.27;11.00;;;;;;;13.55;78.01;101748.75;5033568;28;20152;-78
2023/05/14 07:22:44;;;;;;;15.45;10.68;;;;;;;13.57;78.90;101753.06;5033748;28;20100;-78
2023/05/14 07:25:10;;;;;;;14.10;11.20;;;;;;;13.63;77.64;101757.28;5032852;28;20026;-78
2023/05/14 07:27:35;;;;;;;19.58;11.65;;;;;;;13.64;76.81;101761.63;5034043;28;20472;-78
2023/05/14 07:30:00;;;;;;;14.52;11.02;;;;;;;13.63;77.43;101754.66;5033891;28;20021;-78
2023/05/14 07:32:26;;;;;;;15.68;11.30;;;;;;;13.69;78.98;101744.03;5033848;28;20513;-78
2023/05/14 07:34:51;;;;;;;15.68;10.82;;;;;;;13.74;77.97;101752.66;5032292;28;20067;-78
2023/05/14 07:37:16;;;;;;;14.38;11.23;;;;;;;13.78;77.81;101746.44;5031776;28;20025;-78
2023/05/14 07:39:42;;;;;;;15.43;11.48;;;;;;;13.84;77.85;101748.03;5032761;28;20025;-78
2023/05/14 07:42:07;;;;;;;13.18;10.73;;;;;;;13.90;77.31;101745.28;5033074;28;20021;-78
2023/05/14 07:44:33;;;;;;;14.68;10.48;;;;;;;13.95;78.95;101747.78;5031645;28;21228;-78
2023/05/14 07:46:58;;;;;;;14.90;11.50;;;;;;;13.99;76.81;101746.81;5032757;28;20406;-78
2023/05/14 07:49:24;;;;;;;15.10;11.00;;;;;;;14.02;78.30;101745.88;5030706;28;20473;-78
2023/05/14 07:51:49;;;;;;;17.25;11.55;;;;;;;14.09;77.57;101744.81;5030680;28;20037;-77
2023/05/14 07:54:14;;;;;;;15.00;11.65;;;;;;;14.18;77.56;101747.19;5031599;28;20097;-78
2023/05/14 07:56:40;;;;;;;16.42;11.52;;;;;;;14.23;77.31;101742.69;5032814;28;20218;-78
2023/05/14 07:59:06;;;;;;;17.42;12.25;;;;;;;14.31;78.65;101741.63;5029167;28;20040;-77
2023/05/14 08:01:31;;;;;;;14.65;12.15;;;;;;;14.32;77.86;101744.22;5029827;28;20029;-78
2023/05/14 08:03:56;;;;;;;16.38;11.88;;;;;;;14.37;77.44;101738.84;5028614;28;20048;-77
2023/05/14 08:06:26;;;;;;;17.58;12.55;;;;;;;14.46;77.52;101742.97;5024214;28;20208;-77
2023/05/14 08:08:51;;;;;;;18.92;13.32;;;;;;;14.53;77.89;101747.13;5022868;28;20558;-77
2023/05/14 08:11:16;;;;;;;19.00;12.57;;;;;;;14.56;77.26;101739.19;5021719;28;20108;-79
2023/05/14 08:13:42;;;;;;;18.95;12.57;;;;;;;14.62;78.47;101749.50;5024644;28;20040;-78
2023/05/14 08:16:08;;;;;;;18.42;12.95;;;;;;;14.69;78.61;101755.44;5024969;28;20673;-77
2023/05/14 08:18:33;;;;;;;15.40;12.15;;;;;;;14.72;75.36;101756.22;5024893;28;20034;-78
2023/05/14 08:20:58;;;;;;;15.05;11.80;;;;;;;14.75;76.82;101759.66;5024053;28;20570;-78
2023/05/14 08:23:24;;;;;;;16.98;12.60;;;;;;;14.79;77.46;101758.66;5022862;28;20029;-78
2023/05/14 08:25:50;;;;;;;16.33;12.18;;;;;;;14.81;77.84;101749.00;5023754;28;20480;-78
2023/05/14 08:28:15;;;;;;;16.98;12.10;;;;;;;14.82;76.85;101751.56;5027376;28;20124;-78
2023/05/14 08:30:40;;;;;;;16.20;12.23;;;;;;;14.82;76.85;101748.09;5024344;28;20029;-78
2023/05/14 08:33:05;;;;;;;16.98;12.00;;;;;;;14.80;75.86;101753.38;5023640;28;20033;-78
2023/05/14 08:35:31;;;;;;;16.98;11.90;;;;;;;14.79;77.49;101751.66;5024507;28;20499;-78
2023/05/14 08:37:56;;;;;;;18.13;12.55;;;;;;;14.78;76.31;101741.22;5022818;28;20491;-78
2023/05/14 08:40:21;;;;;;;17.42;11.75;;;;;;;14.82;76.47;101745.47;5022021;28;20030;-78
2023/05/14 08:42:47;;;;;;;18.92;12.65;;;;;;;14.87;76.47;101746.19;5021063;28;20325;-78
2023/05/14 08:45:18;;;;;;;17.20;12.63;;;;;;;14.89;76.67;101741.75;5021181;28;20111;-78
2023/05/14 08:47:48;;;;;;;16.33;11.83;;;;;;;14.94;75.65;101745.13;5020023;28;20970;-77
2023/05/14 08:50:14;;;;;;;15.60;11.82;;;;;;;14.99;78.34;101743.22;5021770;28;20504;-77
2023/05/14 08:52:39;;;;;;;16.08;11.98;;;;;;;15.03;77.28;101742.19;5023462;28;20048;-78
2023/05/14 08:55:05;;;;;;;19.02;11.68;;;;;;;15.01;75.48;101741.41;5023490;28;20076;-78
2023/05/14 08:57:33;;;;;;;17.27;12.32;;;;;;;15.00;74.23;101742.31;5022483;28;20049;-77
2023/05/14 08:59:58;;;;;;;14.18;11.23;;;;;;;15.02;74.94;101737.91;5024073;28;20044;-78
2023/05/14 09:02:28;;;;;;;15.00;11.35;;;;;;;15.07;74.78;101740.38;5023059;28;20034;-78
2023/05/14 09:04:58;;;;;;;15.38;11.57;;;;;;;15.15;77.55;101727.03;5023395;28;20045;-78
2023/05/14 09:07:24;;;;;;;15.10;10.63;;;;;;;15.24;73.58;101728.50;5021615;28;20029;-78
2023/05/14 09:09:53;;;;;;;16.55;11.45;;;;;;;15.31;74.37;101719.53;5021307;28;20644;-78
2023/05/14 09:12:19;;;;;;;12.75;10.32;;;;;;;15.38;71.27;101718.44;5022604;28;20491;-78
2023/05/14 09:14:46;;;;;;;13.48;10.13;;;;;;;15.43;72.75;101720.91;5023948;28;20038;-78
2023/05/14 09:17:11;;;;;;;14.02;10.25;;;;;;;15.47;69.50;101714.66;5021810;28;20037;-78
2023/05/14 09:19:42;;;;;;;12.85;10.43;;;;;;;15.53;70.65;101716.22;5023316;28;20037;-78
2023/05/14 09:22:10;;;;;;;13.75;10.00;;;;;;;15.57;69.14;101709.97;5024368;28;20033;-78
2023/05/14 09:24:37;;;;;;;13.27;10.02;;;;;;;15.66;71.35;101711.44;5024139;28;20029;-77
2023/05/14 09:27:03;;;;;;;12.90;10.38;;;;;;;15.73;69.79;101707.69;5024951;28;20017;-77
2023/05/14 09:29:28;;;;;;;13.88;10.75;;;;;;;15.80;68.66;101706.59;5023789;28;20384;-78
2023/05/14 09:31:55;;;;;;;11.40;9.27;;;;;;;15.86;69.39;101706.41;5023912;28;20122;-77
2023/05/14 09:34:26;;;;;;;13.98;9.95;;;;;;;15.94;68.75;101700.91;5023372;28;20112;-77
2023/05/14 09:37:03;;;;;;;14.33;10.10;;;;;;;16.01;68.76;101696.31;5024258;28;20120;-77
2023/05/14 09:39:29;;;;;;;13.50;9.75;;;;;;;16.07;69.35;101699.56;5021541;28;20295;-78
2023/05/14 09:41:55;;;;;;;12.70;9.85;;;;;;;16.15;71.13;101707.16;5023291;28;20037;-79
2023/05/14 09:44:21;;;;;;;11.90;9.50;;;;;;;16.22;69.46;101699.94;5022699;28;20091;-78
2023/05/14 09:46:47;;;;;;;12.20;9.70;;;;;;;16.24;67.81;101696.31;5024493;28;20033;-79
2023/05/14 09:49:13;;;;;;;13.50;9.63;;;;;;;16.31;67.83;101689.06;5024764;28;20490;-78
2023/05/14 09:51:38;;;;;;;13.73;10.05;;;;;;;16.39;68.75;101689.66;5022167;28;20081;-79
2023/05/14 09:54:05;;;;;;;12.80;9.45;;;;;;;16.45;66.93;101685.97;5022563;28;20041;-78
2023/05/14 09:56:31;;;;;;;12.20;9.48;;;;;;;16.49;69.24;101687.56;5024989;28;20034;-78
2023/05/14 09:58:57;;;;;;;12.75;9.63;;;;;;;16.55;67.39;101696.97;5023974;28;21303;-79
2023/05/14 10:01:23;;;;;;;11.55;8.82;;;;;;;16.63;69.80;101688.81;5019902;28;20033;-79
2023/05/14 10:03:49;;;;;;;10.82;8.45;;;;;;;16.69;68.16;101688.59;5021081;28;20532;-79
2023/05/14 10:06:16;;;;;;;10.95;8.90;;;;;;;16.75;66.97;101685.72;5023339;28;20087;-79
2023/05/14 10:08:47;;;;;;;11.25;8.52;;;;;;;16.79;68.65;101686.47;5022941;28;20029;-79
2023/05/14 10:11:36;;;;;;;10.73;8.63;;;;;;;16.82;67.38;101681.09;5022762;28;20076;-79
2023/05/14 10:14:17;;;;;;;10.65;9.13;;;;;;;16.87;65.44;101680.91;5024087;28;20495;-79
2023/05/14 10:16:47;;;;;;;10.10;8.38;;;;;;;16.91;66.02;101678.09;5022976;28;20452;-79
2023/05/14 10:19:14;;;;;;;11.10;8.25;;;;;;;16.96;66.87;101680.56;5024458;28;20029;-79
2023/05/14 10:21:47;;;;;;;12.30;8.90;;;;;;;17.00;66.82;101676.91;5022853;28;20459;-79
2023/05/14 10:24:13;;;;;;;13.88;9.18;;;;;;;17.06;68.41;101668.78;5026827;28;20079;-79
2023/05/14 10:26:40;;;;;;;11.45;8.88;;;;;;;17.10;66.27;101670.38;5026491;28;20029;-79
2023/05/14 10:29:06;;;;;;;11.55;8.73;;;;;;;17.16;69.40;101663.16;5026944;28;20065;-79
2023/05/14 10:31:50;;;;;;;10.07;8.82;;;;;;;17.18;67.22;101664.78;5028496;28;20057;-79
2023/05/14 10:34:36;;;;;;;10.68;8.85;;;;;;;17.25;67.48;101665.44;5026913;28;20044;-78
2023/05/14 10:37:03;;;;;;;11.50;8.23;;;;;;;17.29;66.32;101661.72;5026002;28;20057;-77
2023/05/14 10:39:49;;;;;;;10.05;8.38;;;;;;;17.37;67.72;101654.41;5027810;28;20763;-78
2023/05/14 10:42:36;;;;;;;10.40;8.60;;;;;;;17.44;68.03;101661.09;5025600;28;20100;-78
2023/05/14 10:45:06;;;;;;;11.13;8.30;;;;;;;17.44;65.64;101650.56;5039420;28;20044;-78
2023/05/14 10:47:32;;;;;;;10.13;7.97;;;;;;;17.48;67.50;101653.06;5025038;28;20029;-78
2023/05/14 10:49:59;;;;;;;11.45;7.78;;;;;;;17.55;69.88;101650.13;5027192;28;20036;-78
2023/05/14 10:52:25;;;;;;;9.00;7.32;;;;;;;17.60;64.57;101644.66;5027143;28;20493;-78
2023/05/14 10:54:53;;;;;;;10.73;7.57;;;;;;;17.67;67.53;101645.28;5025166;28;20047;-79
2023/05/14 10:57:20;;;;;;;9.23;7.18;;;;;;;17.72;66.01;101638.91;5023653;28;20044;-79
2023/05/14 10:59:53;;;;;;;10.45;7.30;;;;;;;17.76;59.05;101642.25;5024517;28;20603;-78
2023/05/14 11:02:27;;;;;;;8.93;6.85;;;;;;;17.80;63.13;101635.06;5025684;28;20571;-78
2023/05/14 11:04:55;;;;;;;10.60;7.60;;;;;;;17.83;62.36;101633.16;5029698;28;20685;-79
2023/05/14 11:07:32;;;;;;;12.40;7.60;;;;;;;17.87;63.40;101631.25;5034431;28;20079;-79
2023/05/14 11:10:09;;;;;;;11.77;7.60;;;;;;;17.90;62.33;101628.50;5026336;28;20025;-80
2023/05/14 11:12:36;;;;;;;9.68;7.65;;;;;;;17.90;60.99;101625.84;5026881;28;20191;-79